createdAt,value
2023-01-24T00:03:27.389Z,102042.41
2023-01-24T00:07:32.017Z,102048.44
2023-01-24T00:11:35.115Z,102039.81
2023-01-24T00:15:38.023Z,102035.47
2023-01-24T00:19:41.087Z,102043.25
2023-01-24T00:23:48.274Z,102043.28
2023-01-24T00:27:51.628Z,102037.22
2023-01-24T00:31:54.557Z,102043.28
2023-01-24T00:35:58.125Z,102049.31
2023-01-24T00:40:02.393Z,102043.28
2023-01-24T00:44:05.627Z,102045.88
2023-01-24T00:48:10.038Z,102042.41
2023-01-24T00:52:13.134Z,102041.53
2023-01-24T00:56:18.230Z,102038.06
2023-01-24T01:00:22.818Z,102036.34
2023-01-24T01:04:25.954Z,102039.81
2023-01-24T01:08:29.039Z,102034.59
2023-01-24T01:12:33.347Z,102038.06
2023-01-24T01:16:38.919Z,102042.41
2023-01-24T01:20:41.953Z,102036.34
2023-01-24T01:24:45.179Z,102045.03
2023-01-24T01:28:49.871Z,102042.41
2023-01-24T01:32:53.228Z,102045.00
2023-01-24T01:36:55.736Z,102042.41
2023-01-24T01:40:59.850Z,102048.44
2023-01-24T01:45:39.438Z,102044.13
2023-01-24T01:49:47.742Z,102043.28
2023-01-24T01:53:54.698Z,102044.16
2023-01-24T01:57:57.491Z,102043.28
2023-01-24T02:02:03.573Z,102040.69
2023-01-24T02:06:07.654Z,102037.22
2023-01-24T02:10:12.011Z,102032.00
2023-01-24T02:14:37.255Z,102021.59
2023-01-24T02:18:45.821Z,102016.41
2023-01-24T02:23:00.900Z,102016.38
2023-01-24T02:27:05.030Z,102008.59
2023-01-24T02:31:08.669Z,102007.72
2023-01-24T02:35:29.173Z,102009.50
2023-01-24T02:39:37.554Z,102006.88
2023-01-24T02:43:47.580Z,101999.09
2023-01-24T02:47:55.335Z,102006.00
2023-01-24T02:52:16.011Z,102008.59
2023-01-24T02:56:36.202Z,102022.50
2023-01-24T03:00:43.476Z,102017.28
2023-01-24T03:04:46.606Z,102019.00
2023-01-24T03:08:49.553Z,102018.16
2023-01-24T03:13:09.719Z,102019.03
2023-01-24T03:17:31.922Z,102019.91
2023-01-24T03:21:52.506Z,102016.44
2023-01-24T03:26:13.632Z,102013.81
2023-01-24T03:30:34.608Z,102011.22
2023-01-24T03:34:50.295Z,102022.50
2023-01-24T03:39:10.867Z,102027.69
2023-01-24T03:43:13.991Z,102024.22
2023-01-24T03:47:16.905Z,102022.53
2023-01-24T03:51:38.962Z,102021.66
2023-01-24T03:55:42.117Z,102022.53
2023-01-24T03:59:45.584Z,102021.63
2023-01-24T04:03:48.872Z,102019.03
2023-01-24T04:07:56.307Z,102026.84
2023-01-24T04:11:59.353Z,102034.66
2023-01-24T04:16:02.485Z,102027.72
2023-01-24T04:20:06.409Z,102037.25
2023-01-24T04:24:11.026Z,102031.19
2023-01-24T04:28:14.248Z,102045.94
2023-01-24T04:32:17.224Z,102039.84
2023-01-24T04:36:19.845Z,102047.66
2023-01-24T04:40:23.985Z,102044.19
2023-01-24T04:44:27.047Z,102048.53
2023-01-24T04:48:30.159Z,102050.28
2023-01-24T04:52:33.126Z,102043.31
2023-01-24T04:56:37.615Z,102044.19
2023-01-24T05:00:41.286Z,102045.94
2023-01-24T05:04:45.118Z,102051.16
2023-01-24T05:08:48.070Z,102055.47
2023-01-24T05:12:52.541Z,102050.25
2023-01-24T05:16:55.695Z,102048.53
2023-01-24T05:21:06.683Z,102058.09
2023-01-24T05:25:09.920Z,102054.63
2023-01-24T05:29:14.663Z,102061.56
2023-01-24T05:33:17.637Z,102072.81
2023-01-24T05:37:20.401Z,102058.09
2023-01-24T05:41:23.648Z,102065.91
2023-01-24T05:45:28.285Z,102070.22
2023-01-24T05:49:32.283Z,102066.78
2023-01-24T05:53:38.585Z,102066.75
2023-01-24T05:57:42.858Z,102078.88
2023-01-24T06:01:47.541Z,102077.16
2023-01-24T06:05:52.110Z,102075.41
2023-01-24T06:09:56.068Z,102084.94
2023-01-24T06:13:59.283Z,102082.38
2023-01-24T06:18:04.023Z,102078.88
2023-01-24T06:22:18.878Z,102084.09
2023-01-24T06:26:22.551Z,102084.97
2023-01-24T06:30:25.946Z,102092.81
2023-01-24T06:35:08.987Z,102091.91
2023-01-24T06:39:16.844Z,102095.34
2023-01-24T06:43:20.596Z,102103.19
2023-01-24T06:47:25.214Z,102108.41
2023-01-24T06:51:29.825Z,102110.13
2023-01-24T06:55:33.473Z,102117.09
2023-01-24T06:59:36.745Z,102116.22
2023-01-24T07:03:39.938Z,102117.97
2023-01-24T07:07:44.373Z,102117.13
2023-01-24T07:11:50.851Z,102115.41
2023-01-24T07:15:54.441Z,102118.00
2023-01-24T07:19:58.227Z,102116.28
2023-01-24T07:24:03.493Z,102114.59
2023-01-24T07:28:07.143Z,102118.06
2023-01-24T07:32:11.462Z,102121.56
2023-01-24T07:36:16.640Z,102121.59
2023-01-24T07:40:21.296Z,102118.13
2023-01-24T07:44:24.386Z,102120.75
2023-01-24T07:48:27.742Z,102108.66
2023-01-24T07:52:30.935Z,102116.44
2023-01-24T07:56:35.169Z,102109.53
2023-01-24T08:00:38.053Z,102113.91
2023-01-24T08:04:41.733Z,102120.84
2023-01-24T08:08:45.559Z,102120.00
2023-01-24T08:12:50.874Z,102118.31
2023-01-24T08:16:53.851Z,102122.66
2023-01-24T08:20:57.885Z,102122.69
2023-01-24T08:25:01.098Z,102117.47
2023-01-24T08:29:05.729Z,102120.94
2023-01-24T08:33:09.902Z,102123.56
2023-01-24T08:37:13.193Z,102120.97
2023-01-24T08:41:16.254Z,102121.88
2023-01-24T08:45:20.935Z,102130.53
2023-01-24T08:49:29.200Z,102126.19
2023-01-24T08:53:33.543Z,102129.69
2023-01-24T08:57:37.577Z,102135.78
2023-01-24T09:01:42.685Z,102129.66
2023-01-24T09:05:47.072Z,102131.41
2023-01-24T09:09:50.277Z,102128.78
2023-01-24T09:13:53.466Z,102126.19
2023-01-24T09:17:58.738Z,102125.28
2023-01-24T09:22:01.909Z,102120.06
2023-01-24T09:26:05.343Z,102117.44
2023-01-24T09:30:11.565Z,102118.28
2023-01-24T09:34:16.951Z,102114.78
2023-01-24T09:38:20.453Z,102113.91
2023-01-24T09:42:35.024Z,102118.25
2023-01-24T09:46:43.212Z,102111.31
2023-01-24T09:50:52.675Z,102106.03
2023-01-24T09:55:02.613Z,102117.31
2023-01-24T09:59:12.574Z,102114.75
2023-01-24T10:03:21.921Z,102124.31
2023-01-24T10:07:50.413Z,102119.97
2023-01-24T10:12:02.571Z,102129.53
2023-01-24T10:16:19.816Z,102131.31
2023-01-24T10:20:39.549Z,102127.00
2023-01-24T10:24:50.361Z,102133.94
2023-01-24T10:28:55.749Z,102132.22
2023-01-24T10:33:03.915Z,102134.00
2023-01-24T10:37:17.170Z,102132.28
2023-01-24T10:41:24.171Z,102131.41
2023-01-24T10:45:42.761Z,102127.06
2023-01-24T10:49:52.202Z,102131.44
2023-01-24T10:54:02.808Z,102131.41
2023-01-24T10:58:23.277Z,102115.75
2023-01-24T11:02:27.675Z,102120.97
2023-01-24T11:06:36.453Z,102117.50
2023-01-24T11:10:43.213Z,102111.41
2023-01-24T11:14:51.167Z,102102.72
2023-01-24T11:18:58.125Z,102111.41
2023-01-24T11:23:07.095Z,102107.06
2023-01-24T11:27:17.037Z,102103.56
2023-01-24T11:31:28.574Z,102102.69
2023-01-24T11:35:36.801Z,102103.53
2023-01-24T11:39:49.982Z,102104.41
2023-01-24T11:44:33.685Z,102102.69
2023-01-24T11:48:49.413Z,102109.63
2023-01-24T11:53:09.486Z,102096.59
2023-01-24T11:57:24.722Z,102089.63
2023-01-24T12:01:38.027Z,102086.16
2023-01-24T12:05:56.672Z,102087.88
2023-01-24T12:10:07.232Z,102094.84
2023-01-24T12:14:33.309Z,102091.34
2023-01-24T12:18:53.218Z,102090.53
2023-01-24T12:23:00.456Z,102084.44
2023-01-24T12:27:07.614Z,102085.28
2023-01-24T12:31:16.551Z,102075.72
2023-01-24T12:35:28.208Z,102075.72
2023-01-24T12:39:44.147Z,102066.13
2023-01-24T12:43:57.699Z,102069.63
2023-01-24T12:48:08.352Z,102061.78
2023-01-24T12:52:22.972Z,102056.53
2023-01-24T12:56:33.745Z,102041.78
2023-01-24T13:00:57.910Z,102047.84
2023-01-24T13:05:18.360Z,102053.06
2023-01-24T13:09:26.728Z,102048.72
2023-01-24T13:13:36.639Z,102049.56
2023-01-24T13:18:14.827Z,102043.50
2023-01-24T13:22:43.531Z,102045.28
2023-01-24T13:26:58.046Z,102059.22
2023-01-24T13:31:14.777Z,102057.47
2023-01-24T13:35:20.949Z,102054.88
2023-01-24T13:39:36.855Z,102054.00
2023-01-24T13:44:01.236Z,102051.38
2023-01-24T13:48:25.349Z,102049.69
2023-01-24T13:52:39.913Z,102056.63
2023-01-24T13:57:29.516Z,102067.09
2023-01-24T14:01:33.440Z,102062.72
2023-01-24T14:05:48.708Z,102047.94
2023-01-24T14:09:58.929Z,102046.25
2023-01-24T14:14:23.360Z,102039.28
2023-01-24T14:18:49.372Z,102037.56
2023-01-24T14:22:57.559Z,102047.09
2023-01-24T14:27:02.241Z,102030.59
2023-01-24T14:31:10.289Z,102028.00
2023-01-24T14:35:20.932Z,102030.63
2023-01-24T14:39:27.349Z,102025.38
2023-01-24T14:43:38.872Z,102032.34
2023-01-24T14:47:42.826Z,102028.88
2023-01-24T14:51:46.970Z,102034.09
2023-01-24T14:55:53.657Z,102041.91
2023-01-24T15:00:05.804Z,102053.19
2023-01-24T15:04:24.259Z,102042.78
2023-01-24T15:08:27.782Z,102051.47
2023-01-24T15:12:34.925Z,102051.47
2023-01-24T15:16:42.845Z,102061.88
2023-01-24T15:20:49.380Z,102053.19
2023-01-24T15:24:54.824Z,102047.09
2023-01-24T15:28:59.521Z,102053.19
2023-01-24T15:33:04.063Z,102047.97
2023-01-24T15:37:07.282Z,102044.50
2023-01-24T15:41:23.265Z,102054.03
2023-01-24T15:45:27.936Z,102047.09
2023-01-24T15:49:35.119Z,102047.09
2023-01-24T15:53:40.524Z,102039.28
2023-01-24T15:57:46.401Z,102040.16
2023-01-24T16:01:51.049Z,102034.94
2023-01-24T16:05:54.426Z,102021.06
2023-01-24T16:09:57.788Z,102024.50
2023-01-24T16:14:01.167Z,102022.81
2023-01-24T16:18:05.682Z,102014.94
2023-01-24T16:22:08.821Z,102015.84
2023-01-24T16:26:22.710Z,102011.50
2023-01-24T16:30:28.370Z,102004.53
2023-01-24T16:34:33.086Z,102007.16
2023-01-24T16:38:36.544Z,102021.03
2023-01-24T16:42:43.634Z,102030.59
2023-01-24T16:46:51.301Z,102032.31
2023-01-24T16:50:58.141Z,102027.97
2023-01-24T16:55:04.139Z,102043.59
2023-01-24T16:59:11.807Z,102042.72
2023-01-24T17:03:15.618Z,102047.94
2023-01-24T17:07:20.247Z,102041.84
2023-01-24T17:11:26.257Z,102057.47
2023-01-24T17:15:29.880Z,102050.53
2023-01-24T17:19:34.874Z,102048.81
2023-01-24T17:23:40.635Z,102034.03
2023-01-24T17:27:43.865Z,102040.97
2023-01-24T17:31:47.139Z,102040.13
2023-01-24T17:35:50.764Z,102041.00
2023-01-24T17:39:55.357Z,102040.09
2023-01-24T17:43:58.635Z,102035.78
2023-01-24T17:48:02.190Z,102035.78
2023-01-24T17:52:06.415Z,102023.63
2023-01-24T17:56:16.324Z,102027.97
2023-01-24T18:00:20.557Z,102021.88
2023-01-24T18:04:23.341Z,102023.63
2023-01-24T18:08:26.434Z,102026.22
2023-01-24T18:12:35.318Z,102030.56
2023-01-24T18:16:38.562Z,102031.41
2023-01-24T18:20:43.243Z,102029.69
2023-01-24T18:24:49.296Z,102031.41
2023-01-24T18:28:54.213Z,102022.75
2023-01-24T18:32:59.186Z,102024.47
2023-01-24T18:37:07.249Z,102026.22
2023-01-24T18:41:10.422Z,102017.53
2023-01-24T18:45:15.262Z,102022.75
2023-01-24T18:49:18.699Z,102021.00
2023-01-24T18:53:21.522Z,102027.09
2023-01-24T18:57:25.006Z,102034.00
2023-01-24T19:01:34.150Z,102019.28
2023-01-24T19:05:44.447Z,102029.66
2023-01-24T19:09:50.036Z,102027.94
2023-01-24T19:13:54.842Z,102030.53
2023-01-24T19:17:59.069Z,102018.41
2023-01-24T19:22:07.940Z,102027.06
2023-01-24T19:26:13.906Z,102019.25
2023-01-24T19:30:17.810Z,102017.50
2023-01-24T19:34:22.545Z,102020.13
2023-01-24T19:38:26.969Z,102011.44
2023-01-24T19:42:30.379Z,102024.44
2023-01-24T19:46:35.455Z,102030.53
2023-01-24T19:50:40.395Z,102020.97
2023-01-24T19:54:43.371Z,102023.59
2023-01-24T19:58:50.087Z,102025.31
2023-01-24T20:02:56.533Z,102018.34
2023-01-24T20:07:02.046Z,102015.75
2023-01-24T20:11:08.284Z,102014.00
2023-01-24T20:15:11.893Z,102009.66
2023-01-24T20:19:27.200Z,102015.75
2023-01-24T20:23:33.199Z,102011.44
2023-01-24T20:27:35.669Z,102020.94
2023-01-24T20:31:39.305Z,102019.19
2023-01-24T20:35:42.777Z,102015.75
2023-01-24T20:39:48.584Z,102016.59
2023-01-24T20:43:57.394Z,102027.03
2023-01-24T20:48:05.216Z,102011.38
2023-01-24T20:52:08.412Z,102006.19
2023-01-24T20:56:14.927Z,102007.06
2023-01-24T21:00:19.120Z,102001.84
2023-01-24T21:04:22.677Z,102007.03
2023-01-24T21:08:27.838Z,102000.09
2023-01-24T21:12:32.691Z,102004.44
2023-01-24T21:16:37.882Z,102002.69
2023-01-24T21:20:41.215Z,102000.09
2023-01-24T21:24:46.758Z,102000.94
2023-01-24T21:28:53.339Z,101996.59
2023-01-24T21:32:56.331Z,102003.53
2023-01-24T21:37:00.003Z,101996.56
2023-01-24T21:41:23.383Z,102002.66
2023-01-24T21:45:29.426Z,102002.66
2023-01-24T21:49:32.860Z,102015.66
2023-01-24T21:53:53.425Z,102009.59
2023-01-24T21:58:06.149Z,102026.91
2023-01-24T22:02:14.300Z,102029.53
2023-01-24T22:06:17.560Z,102025.19
2023-01-24T22:10:21.909Z,102024.31
2023-01-24T22:14:29.794Z,102015.63
2023-01-24T22:18:34.930Z,102013.03
2023-01-24T22:22:55.218Z,102013.91
2023-01-24T22:27:04.812Z,102011.28
2023-01-24T22:31:08.764Z,102010.41
2023-01-24T22:35:17.446Z,101999.13
2023-01-24T22:39:20.358Z,102015.59
2023-01-24T22:43:23.538Z,101999.13
2023-01-24T22:47:26.493Z,101984.38
2023-01-24T22:51:33.236Z,101981.75
2023-01-24T22:55:38.598Z,101968.72
2023-01-24T22:59:42.176Z,101960.91
2023-01-24T23:03:45.202Z,101971.28
2023-01-24T23:07:49.837Z,101958.28
2023-01-24T23:11:53.061Z,101956.56
2023-01-24T23:16:12.267Z,101960.00
2023-01-24T23:20:32.907Z,101942.63
2023-01-24T23:24:37.780Z,101933.09
2023-01-24T23:28:43.875Z,101938.28
2023-01-24T23:32:51.778Z,101920.09
2023-01-24T23:36:55.008Z,101927.91
2023-01-24T23:40:59.518Z,101920.94
2023-01-24T23:45:03.194Z,101933.91
2023-01-24T23:49:06.567Z,101935.66
2023-01-24T23:53:09.439Z,101942.56
2023-01-24T23:57:14.145Z,101944.31
